sensor_id;sensor_type;location;lat;lon;timestamp;temperature;humidity
18083;DHT22;9168;51.194;6.840;2022-12-07T00:01:41;5.70;99.90
18083;DHT22;9168;51.194;6.840;2022-12-07T00:04:11;5.70;99.90
18083;DHT22;9168;51.194;6.840;2022-12-07T00:06:39;5.60;99.90
18083;DHT22;9168;51.194;6.840;2022-12-07T00:09:10;5.60;99.90
18083;DHT22;9168;51.194;6.840;2022-12-07T00:11:37;5.60;99.90
18083;DHT22;9168;51.194;6.840;2022-12-07T00:14:07;5.60;99.90
18083;DHT22;9168;51.194;6.840;2022-12-07T00:16:34;5.60;99.90
18083;DHT22;9168;51.194;6.840;2022-12-07T00:19:03;5.50;99.90
18083;DHT22;9168;51.194;6.840;2022-12-07T00:21:31;5.60;99.90
18083;DHT22;9168;51.194;6.840;2022-12-07T00:23:59;5.60;99.90
18083;DHT22;9168;51.194;6.840;2022-12-07T00:26:28;5.60;99.90
18083;DHT22;9168;51.194;6.840;2022-12-07T00:28:57;5.60;99.90
18083;DHT22;9168;51.194;6.840;2022-12-07T00:31:26;5.60;99.90
18083;DHT22;9168;51.194;6.840;2022-12-07T00:33:53;5.60;99.90
18083;DHT22;9168;51.194;6.840;2022-12-07T00:36:22;5.60;99.90
18083;DHT22;9168;51.194;6.840;2022-12-07T00:38:52;5.60;99.90
18083;DHT22;9168;51.194;6.840;2022-12-07T00:41:21;5.60;99.90
18083;DHT22;9168;51.194;6.840;2022-12-07T00:43:49;5.70;99.90
18083;DHT22;9168;51.194;6.840;2022-12-07T00:46:17;5.70;99.90
18083;DHT22;9168;51.194;6.840;2022-12-07T00:48:44;5.60;99.90
18083;DHT22;9168;51.194;6.840;2022-12-07T00:51:12;5.60;99.90
18083;DHT22;9168;51.194;6.840;2022-12-07T00:53:40;5.60;99.90
18083;DHT22;9168;51.194;6.840;2022-12-07T00:56:08;5.60;99.90
18083;DHT22;9168;51.194;6.840;2022-12-07T00:58:35;5.60;99.90
18083;DHT22;9168;51.194;6.840;2022-12-07T01:01:04;5.60;99.90
18083;DHT22;9168;51.194;6.840;2022-12-07T01:03:31;5.60;99.90
18083;DHT22;9168;51.194;6.840;2022-12-07T01:05:58;5.60;99.90
18083;DHT22;9168;51.194;6.840;2022-12-07T01:08:27;5.60;99.90
18083;DHT22;9168;51.194;6.840;2022-12-07T01:11:00;5.60;99.90
18083;DHT22;9168;51.194;6.840;2022-12-07T01:13:27;5.60;99.90
18083;DHT22;9168;51.194;6.840;2022-12-07T01:15:57;5.60;99.90
18083;DHT22;9168;51.194;6.840;2022-12-07T01:18:25;5.60;99.90
18083;DHT22;9168;51.194;6.840;2022-12-07T01:21:00;5.60;99.90
18083;DHT22;9168;51.194;6.840;2022-12-07T01:23:27;5.60;99.90
18083;DHT22;9168;51.194;6.840;2022-12-07T01:25:55;5.70;99.90
18083;DHT22;9168;51.194;6.840;2022-12-07T01:28:24;5.70;99.90
18083;DHT22;9168;51.194;6.840;2022-12-07T01:31:01;5.70;99.90
18083;DHT22;9168;51.194;6.840;2022-12-07T01:33:30;5.70;99.90
18083;DHT22;9168;51.194;6.840;2022-12-07T01:36:02;5.70;99.90
18083;DHT22;9168;51.194;6.840;2022-12-07T01:38:29;5.60;99.90
18083;DHT22;9168;51.194;6.840;2022-12-07T01:40:56;5.60;99.90
18083;DHT22;9168;51.194;6.840;2022-12-07T01:43:27;5.70;99.90
18083;DHT22;9168;51.194;6.840;2022-12-07T01:45:55;5.70;99.90
18083;DHT22;9168;51.194;6.840;2022-12-07T01:48:25;5.60;99.90
18083;DHT22;9168;51.194;6.840;2022-12-07T01:50:54;5.60;99.90
18083;DHT22;9168;51.194;6.840;2022-12-07T01:53:25;5.70;99.90
18083;DHT22;9168;51.194;6.840;2022-12-07T01:55:54;5.60;99.90
18083;DHT22;9168;51.194;6.840;2022-12-07T01:58:22;5.60;99.90
18083;DHT22;9168;51.194;6.840;2022-12-07T02:00:51;5.60;99.90
18083;DHT22;9168;51.194;6.840;2022-12-07T02:03:21;5.60;99.90
18083;DHT22;9168;51.194;6.840;2022-12-07T02:05:50;5.60;99.90
18083;DHT22;9168;51.194;6.840;2022-12-07T02:08:17;5.60;99.90
18083;DHT22;9168;51.194;6.840;2022-12-07T02:10:45;5.60;99.90
18083;DHT22;9168;51.194;6.840;2022-12-07T02:13:16;5.60;99.90
18083;DHT22;9168;51.194;6.840;2022-12-07T02:16:03;5.70;99.90
18083;DHT22;9168;51.194;6.840;2022-12-07T02:18:42;5.70;99.90
18083;DHT22;9168;51.194;6.840;2022-12-07T02:21:12;5.60;99.90
18083;DHT22;9168;51.194;6.840;2022-12-07T02:23:56;5.60;99.90
18083;DHT22;9168;51.194;6.840;2022-12-07T02:26:56;5.60;99.90
18083;DHT22;9168;51.194;6.840;2022-12-07T02:29:33;5.60;99.90
18083;DHT22;9168;51.194;6.840;2022-12-07T02:32:06;5.60;99.90
18083;DHT22;9168;51.194;6.840;2022-12-07T02:34:39;5.60;99.90
18083;DHT22;9168;51.194;6.840;2022-12-07T02:37:16;5.60;99.90
18083;DHT22;9168;51.194;6.840;2022-12-07T02:39:47;5.60;99.90
18083;DHT22;9168;51.194;6.840;2022-12-07T02:42:27;5.60;99.90
18083;DHT22;9168;51.194;6.840;2022-12-07T02:44:59;5.60;99.90
18083;DHT22;9168;51.194;6.840;2022-12-07T02:47:28;5.60;99.90
18083;DHT22;9168;51.194;6.840;2022-12-07T02:49:58;5.60;99.90
18083;DHT22;9168;51.194;6.840;2022-12-07T02:52:24;5.60;99.90
18083;DHT22;9168;51.194;6.840;2022-12-07T02:54:51;5.60;99.90
18083;DHT22;9168;51.194;6.840;2022-12-07T02:57:37;5.60;99.90
18083;DHT22;9168;51.194;6.840;2022-12-07T03:00:09;5.60;99.90
18083;DHT22;9168;51.194;6.840;2022-12-07T03:02:46;5.70;99.90
18083;DHT22;9168;51.194;6.840;2022-12-07T03:08:23;5.60;99.90
18083;DHT22;9168;51.194;6.840;2022-12-07T03:10:56;5.60;99.90
18083;DHT22;9168;51.194;6.840;2022-12-07T03:13:28;5.60;99.90
18083;DHT22;9168;51.194;6.840;2022-12-07T03:16:04;5.60;99.90
18083;DHT22;9168;51.194;6.840;2022-12-07T03:18:37;5.60;99.90
18083;DHT22;9168;51.194;6.840;2022-12-07T03:21:09;5.60;99.90
18083;DHT22;9168;51.194;6.840;2022-12-07T03:23:39;5.60;99.90
18083;DHT22;9168;51.194;6.840;2022-12-07T03:26:09;5.60;99.90
18083;DHT22;9168;51.194;6.840;2022-12-07T03:28:42;5.60;99.90
18083;DHT22;9168;51.194;6.840;2022-12-07T03:31:14;5.60;99.90
18083;DHT22;9168;51.194;6.840;2022-12-07T03:33:46;5.70;99.90
18083;DHT22;9168;51.194;6.840;2022-12-07T03:36:17;5.70;99.90
18083;DHT22;9168;51.194;6.840;2022-12-07T03:38:52;5.70;99.90
18083;DHT22;9168;51.194;6.840;2022-12-07T03:41:24;5.70;99.90
18083;DHT22;9168;51.194;6.840;2022-12-07T03:43:53;5.70;99.90
18083;DHT22;9168;51.194;6.840;2022-12-07T03:46:29;5.70;99.90
18083;DHT22;9168;51.194;6.840;2022-12-07T03:49:03;5.70;99.90
18083;DHT22;9168;51.194;6.840;2022-12-07T03:51:37;5.60;99.90
18083;DHT22;9168;51.194;6.840;2022-12-07T03:54:10;5.70;99.90
18083;DHT22;9168;51.194;6.840;2022-12-07T03:56:38;5.70;99.90
18083;DHT22;9168;51.194;6.840;2022-12-07T03:59:05;5.60;99.90
18083;DHT22;9168;51.194;6.840;2022-12-07T04:01:34;5.60;99.90
18083;DHT22;9168;51.194;6.840;2022-12-07T04:04:01;5.60;99.90
18083;DHT22;9168;51.194;6.840;2022-12-07T04:06:28;5.60;99.90
18083;DHT22;9168;51.194;6.840;2022-12-07T04:08:55;5.60;99.90
18083;DHT22;9168;51.194;6.840;2022-12-07T04:11:22;5.50;99.90
18083;DHT22;9168;51.194;6.840;2022-12-07T04:13:48;5.50;99.90
18083;DHT22;9168;51.194;6.840;2022-12-07T04:16:34;5.50;99.90
18083;DHT22;9168;51.194;6.840;2022-12-07T04:19:01;5.50;99.90
18083;DHT22;9168;51.194;6.840;2022-12-07T04:21:28;5.50;99.90
18083;DHT22;9168;51.194;6.840;2022-12-07T04:23:55;5.40;99.90
18083;DHT22;9168;51.194;6.840;2022-12-07T04:26:22;5.40;99.90
18083;DHT22;9168;51.194;6.840;2022-12-07T04:28:48;5.40;99.90
18083;DHT22;9168;51.194;6.840;2022-12-07T04:31:15;5.40;99.90
18083;DHT22;9168;51.194;6.840;2022-12-07T04:33:44;5.40;99.90
18083;DHT22;9168;51.194;6.840;2022-12-07T04:36:10;5.40;99.90
18083;DHT22;9168;51.194;6.840;2022-12-07T04:38:37;5.40;99.90
18083;DHT22;9168;51.194;6.840;2022-12-07T04:41:05;5.40;99.90
18083;DHT22;9168;51.194;6.840;2022-12-07T04:43:32;5.50;99.90
18083;DHT22;9168;51.194;6.840;2022-12-07T04:45:59;5.40;99.90
18083;DHT22;9168;51.194;6.840;2022-12-07T04:48:26;5.50;99.90
18083;DHT22;9168;51.194;6.840;2022-12-07T04:50:55;5.50;99.90
18083;DHT22;9168;51.194;6.840;2022-12-07T04:53:21;5.50;99.90
18083;DHT22;9168;51.194;6.840;2022-12-07T04:55:48;5.40;99.90
18083;DHT22;9168;51.194;6.840;2022-12-07T04:58:15;5.40;99.90
18083;DHT22;9168;51.194;6.840;2022-12-07T05:00:42;5.40;99.90
18083;DHT22;9168;51.194;6.840;2022-12-07T05:03:09;5.40;99.90
18083;DHT22;9168;51.194;6.840;2022-12-07T05:05:36;5.40;99.90
18083;DHT22;9168;51.194;6.840;2022-12-07T05:08:04;5.40;99.90
18083;DHT22;9168;51.194;6.840;2022-12-07T05:10:31;5.40;99.90
18083;DHT22;9168;51.194;6.840;2022-12-07T05:12:58;5.40;99.90
18083;DHT22;9168;51.194;6.840;2022-12-07T05:15:25;5.40;99.90
18083;DHT22;9168;51.194;6.840;2022-12-07T05:17:51;5.40;99.90
18083;DHT22;9168;51.194;6.840;2022-12-07T05:20:18;5.40;99.90
18083;DHT22;9168;51.194;6.840;2022-12-07T05:22:45;5.30;99.90
18083;DHT22;9168;51.194;6.840;2022-12-07T05:25:14;5.30;99.90
18083;DHT22;9168;51.194;6.840;2022-12-07T05:27:41;5.30;99.90
18083;DHT22;9168;51.194;6.840;2022-12-07T05:30:08;5.30;99.90
18083;DHT22;9168;51.194;6.840;2022-12-07T05:32:35;5.30;99.90
18083;DHT22;9168;51.194;6.840;2022-12-07T05:35:02;5.30;99.90
18083;DHT22;9168;51.194;6.840;2022-12-07T05:37:29;5.30;99.90
18083;DHT22;9168;51.194;6.840;2022-12-07T05:39:56;5.30;99.90
18083;DHT22;9168;51.194;6.840;2022-12-07T05:42:24;5.30;99.90
18083;DHT22;9168;51.194;6.840;2022-12-07T05:44:51;5.30;99.90
18083;DHT22;9168;51.194;6.840;2022-12-07T05:47:18;5.30;99.90
18083;DHT22;9168;51.194;6.840;2022-12-07T05:49:45;5.30;99.90
18083;DHT22;9168;51.194;6.840;2022-12-07T05:52:11;5.30;99.90
18083;DHT22;9168;51.194;6.840;2022-12-07T05:54:38;5.30;99.90
18083;DHT22;9168;51.194;6.840;2022-12-07T05:57:05;5.30;99.90
18083;DHT22;9168;51.194;6.840;2022-12-07T05:59:33;5.30;99.90
18083;DHT22;9168;51.194;6.840;2022-12-07T06:02:01;5.30;99.90
18083;DHT22;9168;51.194;6.840;2022-12-07T06:04:29;5.30;99.90
18083;DHT22;9168;51.194;6.840;2022-12-07T06:06:56;5.30;99.90
18083;DHT22;9168;51.194;6.840;2022-12-07T06:09:24;5.20;99.90
18083;DHT22;9168;51.194;6.840;2022-12-07T06:11:52;5.30;99.90
18083;DHT22;9168;51.194;6.840;2022-12-07T06:14:37;5.30;99.90
18083;DHT22;9168;51.194;6.840;2022-12-07T06:17:04;5.30;99.90
18083;DHT22;9168;51.194;6.840;2022-12-07T06:19:31;5.30;99.90
18083;DHT22;9168;51.194;6.840;2022-12-07T06:21:58;5.30;99.90
18083;DHT22;9168;51.194;6.840;2022-12-07T06:24:25;5.30;99.90
18083;DHT22;9168;51.194;6.840;2022-12-07T06:26:52;5.30;99.90
18083;DHT22;9168;51.194;6.840;2022-12-07T06:29:19;5.30;99.90
18083;DHT22;9168;51.194;6.840;2022-12-07T06:31:48;5.30;99.90
18083;DHT22;9168;51.194;6.840;2022-12-07T06:34:18;5.30;99.90
18083;DHT22;9168;51.194;6.840;2022-12-07T06:36:46;5.30;99.90
18083;DHT22;9168;51.194;6.840;2022-12-07T06:39:17;5.30;99.90
18083;DHT22;9168;51.194;6.840;2022-12-07T06:41:44;5.30;99.90
18083;DHT22;9168;51.194;6.840;2022-12-07T06:44:11;5.30;99.90
18083;DHT22;9168;51.194;6.840;2022-12-07T06:46:37;5.30;99.90
18083;DHT22;9168;51.194;6.840;2022-12-07T06:49:06;5.30;99.90
18083;DHT22;9168;51.194;6.840;2022-12-07T06:51:33;5.30;99.90
18083;DHT22;9168;51.194;6.840;2022-12-07T06:54:02;5.30;99.90
18083;DHT22;9168;51.194;6.840;2022-12-07T06:56:29;5.30;99.90
18083;DHT22;9168;51.194;6.840;2022-12-07T06:58:56;5.30;99.90
18083;DHT22;9168;51.194;6.840;2022-12-07T07:01:23;5.30;99.90
18083;DHT22;9168;51.194;6.840;2022-12-07T07:03:50;5.30;99.90
18083;DHT22;9168;51.194;6.840;2022-12-07T07:06:19;5.30;99.90
18083;DHT22;9168;51.194;6.840;2022-12-07T07:08:46;5.30;99.90
18083;DHT22;9168;51.194;6.840;2022-12-07T07:11:12;5.30;99.90
18083;DHT22;9168;51.194;6.840;2022-12-07T07:13:39;5.30;99.90
18083;DHT22;9168;51.194;6.840;2022-12-07T07:16:07;5.30;99.90
18083;DHT22;9168;51.194;6.840;2022-12-07T07:18:34;5.30;99.90
18083;DHT22;9168;51.194;6.840;2022-12-07T07:21:01;5.30;99.90
18083;DHT22;9168;51.194;6.840;2022-12-07T07:23:30;5.30;99.90
18083;DHT22;9168;51.194;6.840;2022-12-07T07:25:56;5.30;99.90
18083;DHT22;9168;51.194;6.840;2022-12-07T07:28:23;5.30;99.90
18083;DHT22;9168;51.194;6.840;2022-12-07T07:30:50;5.30;99.90
18083;DHT22;9168;51.194;6.840;2022-12-07T07:33:17;5.20;99.90
18083;DHT22;9168;51.194;6.840;2022-12-07T07:35:44;5.20;99.90
18083;DHT22;9168;51.194;6.840;2022-12-07T07:38:11;5.10;99.90
18083;DHT22;9168;51.194;6.840;2022-12-07T07:40:39;5.10;99.90
18083;DHT22;9168;51.194;6.840;2022-12-07T07:43:06;5.10;99.90
18083;DHT22;9168;51.194;6.840;2022-12-07T07:45:33;5.10;99.90
18083;DHT22;9168;51.194;6.840;2022-12-07T07:47:59;5.10;99.90
18083;DHT22;9168;51.194;6.840;2022-12-07T07:50:27;5.20;99.90
18083;DHT22;9168;51.194;6.840;2022-12-07T07:52:53;5.20;99.90
18083;DHT22;9168;51.194;6.840;2022-12-07T07:55:20;5.20;99.90
18083;DHT22;9168;51.194;6.840;2022-12-07T07:57:49;5.20;99.90
18083;DHT22;9168;51.194;6.840;2022-12-07T08:00:16;5.20;99.90
18083;DHT22;9168;51.194;6.840;2022-12-07T08:02:44;5.10;99.90
18083;DHT22;9168;51.194;6.840;2022-12-07T08:05:12;5.10;99.90
18083;DHT22;9168;51.194;6.840;2022-12-07T08:07:39;5.00;99.90
18083;DHT22;9168;51.194;6.840;2022-12-07T08:10:07;5.00;99.90
18083;DHT22;9168;51.194;6.840;2022-12-07T08:12:36;5.00;99.90
18083;DHT22;9168;51.194;6.840;2022-12-07T08:15:26;5.00;99.90
18083;DHT22;9168;51.194;6.840;2022-12-07T08:17:53;4.90;99.90
18083;DHT22;9168;51.194;6.840;2022-12-07T08:20:20;4.80;99.90
18083;DHT22;9168;51.194;6.840;2022-12-07T08:22:48;4.80;99.90
18083;DHT22;9168;51.194;6.840;2022-12-07T08:25:15;4.80;99.90
18083;DHT22;9168;51.194;6.840;2022-12-07T08:27:43;4.80;99.90
18083;DHT22;9168;51.194;6.840;2022-12-07T08:30:10;4.80;99.90
18083;DHT22;9168;51.194;6.840;2022-12-07T08:32:39;4.90;99.90
18083;DHT22;9168;51.194;6.840;2022-12-07T08:35:06;5.00;99.90
18083;DHT22;9168;51.194;6.840;2022-12-07T08:37:33;5.10;99.90
18083;DHT22;9168;51.194;6.840;2022-12-07T08:40:00;5.20;99.90
18083;DHT22;9168;51.194;6.840;2022-12-07T08:42:27;5.20;99.90
18083;DHT22;9168;51.194;6.840;2022-12-07T08:44:56;5.30;99.90
18083;DHT22;9168;51.194;6.840;2022-12-07T08:47:32;5.30;99.90
18083;DHT22;9168;51.194;6.840;2022-12-07T08:50:02;5.30;99.90
18083;DHT22;9168;51.194;6.840;2022-12-07T08:52:30;5.30;99.90
18083;DHT22;9168;51.194;6.840;2022-12-07T08:54:58;5.40;99.90
18083;DHT22;9168;51.194;6.840;2022-12-07T08:57:33;5.40;99.90
18083;DHT22;9168;51.194;6.840;2022-12-07T09:00:05;5.40;99.90
18083;DHT22;9168;51.194;6.840;2022-12-07T09:02:32;5.40;99.90
18083;DHT22;9168;51.194;6.840;2022-12-07T09:05:01;5.40;99.90
18083;DHT22;9168;51.194;6.840;2022-12-07T09:07:31;5.40;99.90
18083;DHT22;9168;51.194;6.840;2022-12-07T09:10:02;5.40;99.90
18083;DHT22;9168;51.194;6.840;2022-12-07T09:12:30;5.40;99.90
18083;DHT22;9168;51.194;6.840;2022-12-07T09:14:57;5.40;99.90
18083;DHT22;9168;51.194;6.840;2022-12-07T09:17:26;5.50;99.90
18083;DHT22;9168;51.194;6.840;2022-12-07T09:19:54;5.40;99.90
18083;DHT22;9168;51.194;6.840;2022-12-07T09:22:22;5.50;99.90
18083;DHT22;9168;51.194;6.840;2022-12-07T09:24:49;5.50;99.90
18083;DHT22;9168;51.194;6.840;2022-12-07T09:27:16;5.60;99.90
18083;DHT22;9168;51.194;6.840;2022-12-07T09:29:44;5.60;99.90
18083;DHT22;9168;51.194;6.840;2022-12-07T09:32:10;5.60;99.90
18083;DHT22;9168;51.194;6.840;2022-12-07T09:34:38;5.70;99.90
18083;DHT22;9168;51.194;6.840;2022-12-07T09:37:05;5.80;99.90
18083;DHT22;9168;51.194;6.840;2022-12-07T09:39:34;5.90;99.90
18083;DHT22;9168;51.194;6.840;2022-12-07T09:42:03;6.00;99.90
18083;DHT22;9168;51.194;6.840;2022-12-07T09:44:31;6.00;99.90
18083;DHT22;9168;51.194;6.840;2022-12-07T09:46:59;6.00;99.90
18083;DHT22;9168;51.194;6.840;2022-12-07T09:49:29;6.10;99.90
18083;DHT22;9168;51.194;6.840;2022-12-07T09:52:01;6.10;99.90
18083;DHT22;9168;51.194;6.840;2022-12-07T09:54:29;6.10;99.90
18083;DHT22;9168;51.194;6.840;2022-12-07T09:56:58;6.10;99.90
18083;DHT22;9168;51.194;6.840;2022-12-07T09:59:25;6.10;99.90
18083;DHT22;9168;51.194;6.840;2022-12-07T10:01:52;6.10;99.90
18083;DHT22;9168;51.194;6.840;2022-12-07T10:04:21;6.10;99.90
18083;DHT22;9168;51.194;6.840;2022-12-07T10:06:49;6.20;99.90
18083;DHT22;9168;51.194;6.840;2022-12-07T10:09:19;6.20;99.90
18083;DHT22;9168;51.194;6.840;2022-12-07T10:12:01;6.20;99.90
18083;DHT22;9168;51.194;6.840;2022-12-07T10:14:30;6.20;99.90
18083;DHT22;9168;51.194;6.840;2022-12-07T10:16:58;6.30;99.90
18083;DHT22;9168;51.194;6.840;2022-12-07T10:19:26;6.40;99.90
18083;DHT22;9168;51.194;6.840;2022-12-07T10:22:03;6.40;99.90
18083;DHT22;9168;51.194;6.840;2022-12-07T10:24:30;6.50;99.90
18083;DHT22;9168;51.194;6.840;2022-12-07T10:26:58;6.60;99.90
18083;DHT22;9168;51.194;6.840;2022-12-07T10:29:29;6.50;99.90
18083;DHT22;9168;51.194;6.840;2022-12-07T10:31:58;6.60;99.90
18083;DHT22;9168;51.194;6.840;2022-12-07T10:34:27;6.60;99.90
18083;DHT22;9168;51.194;6.840;2022-12-07T10:37:15;6.60;99.90
18083;DHT22;9168;51.194;6.840;2022-12-07T10:39:44;6.60;99.90
18083;DHT22;9168;51.194;6.840;2022-12-07T10:42:19;6.60;99.90
18083;DHT22;9168;51.194;6.840;2022-12-07T10:44:48;6.60;99.90
18083;DHT22;9168;51.194;6.840;2022-12-07T10:47:32;6.60;99.90
18083;DHT22;9168;51.194;6.840;2022-12-07T10:50:17;6.50;99.90
18083;DHT22;9168;51.194;6.840;2022-12-07T10:53:12;6.50;99.90
18083;DHT22;9168;51.194;6.840;2022-12-07T10:55:58;6.50;99.90
18083;DHT22;9168;51.194;6.840;2022-12-07T10:58:44;6.50;99.90
18083;DHT22;9168;51.194;6.840;2022-12-07T11:01:23;6.60;99.90
18083;DHT22;9168;51.194;6.840;2022-12-07T11:04:17;6.60;99.90
18083;DHT22;9168;51.194;6.840;2022-12-07T11:06:49;6.60;99.90
18083;DHT22;9168;51.194;6.840;2022-12-07T11:12:34;6.70;99.90
18083;DHT22;9168;51.194;6.840;2022-12-07T11:15:04;6.90;99.90
18083;DHT22;9168;51.194;6.840;2022-12-07T11:17:44;7.00;99.90
18083;DHT22;9168;51.194;6.840;2022-12-07T11:20:26;7.20;99.90
18083;DHT22;9168;51.194;6.840;2022-12-07T11:23:01;7.30;99.90
18083;DHT22;9168;51.194;6.840;2022-12-07T11:25:32;7.40;99.90
18083;DHT22;9168;51.194;6.840;2022-12-07T11:28:14;7.40;99.90
18083;DHT22;9168;51.194;6.840;2022-12-07T11:30:50;7.50;99.90
18083;DHT22;9168;51.194;6.840;2022-12-07T11:33:29;7.60;99.90
18083;DHT22;9168;51.194;6.840;2022-12-07T11:36:07;7.70;99.90
18083;DHT22;9168;51.194;6.840;2022-12-07T11:38:44;8.40;99.90
18083;DHT22;9168;51.194;6.840;2022-12-07T11:41:15;9.10;99.90
18083;DHT22;9168;51.194;6.840;2022-12-07T11:43:53;9.90;99.90
18083;DHT22;9168;51.194;6.840;2022-12-07T11:46:24;10.80;99.90
18083;DHT22;9168;51.194;6.840;2022-12-07T11:49:03;11.50;99.90
18083;DHT22;9168;51.194;6.840;2022-12-07T11:51:40;12.30;99.90
18083;DHT22;9168;51.194;6.840;2022-12-07T11:54:14;12.80;99.90
18083;DHT22;9168;51.194;6.840;2022-12-07T11:56:44;13.20;99.90
18083;DHT22;9168;51.194;6.840;2022-12-07T11:59:16;13.20;99.90
18083;DHT22;9168;51.194;6.840;2022-12-07T12:01:50;12.70;99.90
18083;DHT22;9168;51.194;6.840;2022-12-07T12:04:32;12.10;99.90
18083;DHT22;9168;51.194;6.840;2022-12-07T12:07:01;11.70;99.90
18083;DHT22;9168;51.194;6.840;2022-12-07T12:09:32;11.10;99.90
18083;DHT22;9168;51.194;6.840;2022-12-07T12:12:19;10.80;99.90
18083;DHT22;9168;51.194;6.840;2022-12-07T12:14:55;10.30;99.90
18083;DHT22;9168;51.194;6.840;2022-12-07T12:17:44;10.00;99.90
18083;DHT22;9168;51.194;6.840;2022-12-07T12:20:21;9.90;99.90
18083;DHT22;9168;51.194;6.840;2022-12-07T12:22:52;9.70;99.90
18083;DHT22;9168;51.194;6.840;2022-12-07T12:25:22;9.50;99.90
18083;DHT22;9168;51.194;6.840;2022-12-07T12:27:50;9.40;99.90
18083;DHT22;9168;51.194;6.840;2022-12-07T12:30:29;9.40;99.90
18083;DHT22;9168;51.194;6.840;2022-12-07T12:33:03;9.50;99.90
18083;DHT22;9168;51.194;6.840;2022-12-07T12:35:33;9.50;99.90
18083;DHT22;9168;51.194;6.840;2022-12-07T12:38:31;9.50;99.90
18083;DHT22;9168;51.194;6.840;2022-12-07T12:41:00;9.50;99.90
18083;DHT22;9168;51.194;6.840;2022-12-07T12:43:57;9.50;99.90
18083;DHT22;9168;51.194;6.840;2022-12-07T12:46:50;9.70;99.90
18083;DHT22;9168;51.194;6.840;2022-12-07T12:49:35;9.80;99.90
18083;DHT22;9168;51.194;6.840;2022-12-07T12:55:19;9.80;99.90
18083;DHT22;9168;51.194;6.840;2022-12-07T12:57:53;9.70;99.90
18083;DHT22;9168;51.194;6.840;2022-12-07T13:00:41;9.60;99.90
18083;DHT22;9168;51.194;6.840;2022-12-07T13:03:21;9.30;99.90
18083;DHT22;9168;51.194;6.840;2022-12-07T13:06:18;9.20;99.90
18083;DHT22;9168;51.194;6.840;2022-12-07T13:08:46;8.90;99.90
18083;DHT22;9168;51.194;6.840;2022-12-07T13:11:17;8.80;99.90
18083;DHT22;9168;51.194;6.840;2022-12-07T13:13:46;8.70;99.90
18083;DHT22;9168;51.194;6.840;2022-12-07T13:22:52;8.40;99.90
18083;DHT22;9168;51.194;6.840;2022-12-07T13:25:28;8.40;99.90
18083;DHT22;9168;51.194;6.840;2022-12-07T13:27:59;8.20;99.90
18083;DHT22;9168;51.194;6.840;2022-12-07T13:30:28;8.20;99.90
18083;DHT22;9168;51.194;6.840;2022-12-07T13:32:58;8.10;99.90
18083;DHT22;9168;51.194;6.840;2022-12-07T13:35:33;8.10;99.90
18083;DHT22;9168;51.194;6.840;2022-12-07T13:38:13;8.00;99.90
18083;DHT22;9168;51.194;6.840;2022-12-07T13:40:41;8.00;99.90
18083;DHT22;9168;51.194;6.840;2022-12-07T13:43:14;7.90;99.90
18083;DHT22;9168;51.194;6.840;2022-12-07T13:45:42;7.80;99.90
18083;DHT22;9168;51.194;6.840;2022-12-07T13:48:19;7.70;99.90
18083;DHT22;9168;51.194;6.840;2022-12-07T13:50:53;7.60;99.90
18083;DHT22;9168;51.194;6.840;2022-12-07T13:53:22;7.60;99.90
18083;DHT22;9168;51.194;6.840;2022-12-07T13:55:49;7.60;99.90
18083;DHT22;9168;51.194;6.840;2022-12-07T13:58:17;7.50;99.90
18083;DHT22;9168;51.194;6.840;2022-12-07T14:00:44;7.50;99.90
18083;DHT22;9168;51.194;6.840;2022-12-07T14:03:28;7.50;99.90
18083;DHT22;9168;51.194;6.840;2022-12-07T14:06:25;7.50;99.90
18083;DHT22;9168;51.194;6.840;2022-12-07T14:09:18;7.50;99.90
18083;DHT22;9168;51.194;6.840;2022-12-07T14:11:46;7.60;99.90
18083;DHT22;9168;51.194;6.840;2022-12-07T14:14:17;7.60;99.90
18083;DHT22;9168;51.194;6.840;2022-12-07T14:16:55;7.50;99.90
18083;DHT22;9168;51.194;6.840;2022-12-07T14:19:42;7.40;99.90
18083;DHT22;9168;51.194;6.840;2022-12-07T14:22:21;7.40;99.90
18083;DHT22;9168;51.194;6.840;2022-12-07T14:24:51;7.30;99.90
18083;DHT22;9168;51.194;6.840;2022-12-07T14:27:19;7.30;99.90
18083;DHT22;9168;51.194;6.840;2022-12-07T14:29:46;7.30;99.90
18083;DHT22;9168;51.194;6.840;2022-12-07T14:32:24;7.40;99.90
18083;DHT22;9168;51.194;6.840;2022-12-07T14:34:59;7.30;99.90
18083;DHT22;9168;51.194;6.840;2022-12-07T14:37:27;7.30;99.90
18083;DHT22;9168;51.194;6.840;2022-12-07T14:39:56;7.30;99.90
18083;DHT22;9168;51.194;6.840;2022-12-07T14:42:26;7.30;99.90
18083;DHT22;9168;51.194;6.840;2022-12-07T14:44:54;7.30;99.90
18083;DHT22;9168;51.194;6.840;2022-12-07T14:47:21;7.20;99.90
18083;DHT22;9168;51.194;6.840;2022-12-07T14:49:48;7.20;99.90
18083;DHT22;9168;51.194;6.840;2022-12-07T14:52:18;7.10;99.90
18083;DHT22;9168;51.194;6.840;2022-12-07T14:54:46;7.10;99.90
18083;DHT22;9168;51.194;6.840;2022-12-07T14:57:14;7.00;99.90
18083;DHT22;9168;51.194;6.840;2022-12-07T14:59:41;6.90;99.90
18083;DHT22;9168;51.194;6.840;2022-12-07T15:02:11;6.80;99.90
18083;DHT22;9168;51.194;6.840;2022-12-07T15:04:39;6.70;99.90
18083;DHT22;9168;51.194;6.840;2022-12-07T15:07:10;6.70;99.90
18083;DHT22;9168;51.194;6.840;2022-12-07T15:09:39;6.70;99.90
18083;DHT22;9168;51.194;6.840;2022-12-07T15:12:06;6.60;99.90
18083;DHT22;9168;51.194;6.840;2022-12-07T15:14:34;6.60;99.90
18083;DHT22;9168;51.194;6.840;2022-12-07T15:17:02;6.60;99.90
18083;DHT22;9168;51.194;6.840;2022-12-07T15:19:29;6.60;99.90
18083;DHT22;9168;51.194;6.840;2022-12-07T15:21:56;6.60;99.90
18083;DHT22;9168;51.194;6.840;2022-12-07T15:24:24;6.60;99.90
18083;DHT22;9168;51.194;6.840;2022-12-07T15:26:51;6.60;99.90
18083;DHT22;9168;51.194;6.840;2022-12-07T15:29:19;6.60;99.90
18083;DHT22;9168;51.194;6.840;2022-12-07T15:31:48;6.60;99.90
18083;DHT22;9168;51.194;6.840;2022-12-07T15:37:01;6.60;99.90
18083;DHT22;9168;51.194;6.840;2022-12-07T15:39:28;6.60;99.90
18083;DHT22;9168;51.194;6.840;2022-12-07T15:41:57;6.50;99.90
18083;DHT22;9168;51.194;6.840;2022-12-07T15:44:28;6.50;99.90
18083;DHT22;9168;51.194;6.840;2022-12-07T15:47:19;6.50;99.90
18083;DHT22;9168;51.194;6.840;2022-12-07T15:49:49;6.50;99.90
18083;DHT22;9168;51.194;6.840;2022-12-07T15:52:16;6.50;99.90
18083;DHT22;9168;51.194;6.840;2022-12-07T15:54:45;6.50;99.90
18083;DHT22;9168;51.194;6.840;2022-12-07T15:57:13;6.50;99.90
18083;DHT22;9168;51.194;6.840;2022-12-07T15:59:43;6.50;99.90
18083;DHT22;9168;51.194;6.840;2022-12-07T16:02:10;6.50;99.90
18083;DHT22;9168;51.194;6.840;2022-12-07T16:04:38;6.40;99.90
18083;DHT22;9168;51.194;6.840;2022-12-07T16:07:05;6.40;99.90
18083;DHT22;9168;51.194;6.840;2022-12-07T16:09:32;6.40;99.90
18083;DHT22;9168;51.194;6.840;2022-12-07T16:11:59;6.40;99.90
18083;DHT22;9168;51.194;6.840;2022-12-07T16:14:29;6.40;99.90
18083;DHT22;9168;51.194;6.840;2022-12-07T16:17:04;6.40;99.90
18083;DHT22;9168;51.194;6.840;2022-12-07T16:19:34;6.30;99.90
18083;DHT22;9168;51.194;6.840;2022-12-07T16:22:03;6.30;99.90
18083;DHT22;9168;51.194;6.840;2022-12-07T16:24:33;6.30;99.90
18083;DHT22;9168;51.194;6.840;2022-12-07T16:27:00;6.30;99.90
18083;DHT22;9168;51.194;6.840;2022-12-07T16:29:27;6.30;99.90
18083;DHT22;9168;51.194;6.840;2022-12-07T16:31:54;6.30;99.90
18083;DHT22;9168;51.194;6.840;2022-12-07T16:34:21;6.20;99.90
18083;DHT22;9168;51.194;6.840;2022-12-07T16:36:48;6.20;99.90
18083;DHT22;9168;51.194;6.840;2022-12-07T16:39:16;6.10;99.90
18083;DHT22;9168;51.194;6.840;2022-12-07T16:41:43;6.10;99.90
18083;DHT22;9168;51.194;6.840;2022-12-07T16:44:11;6.10;99.90